sensor_id;sensor_type;location;lat;lon;timestamp;pressure;altitude;pressure_sealevel;temperature;humidity
84122;BME280;74217;51.106;17.084;2024-01-16T00:00:11;98596.16;;;0.22;81.43
84122;BME280;74217;51.106;17.084;2024-01-16T00:03:18;98597.25;;;0.44;80.41
84122;BME280;74217;51.106;17.084;2024-01-16T00:06:07;98601.69;;;0.39;80.62
84122;BME280;74217;51.106;17.084;2024-01-16T00:08:51;98584.56;;;0.35;80.10
84122;BME280;74217;51.106;17.084;2024-01-16T00:11:44;98586.00;;;0.16;80.95
84122;BME280;74217;51.106;17.084;2024-01-16T00:14:29;98603.84;;;0.25;80.40
84122;BME280;74217;51.106;17.084;2024-01-16T00:17:18;98593.38;;;-0.01;82.09
84122;BME280;74217;51.106;17.084;2024-01-16T00:20:03;98634.63;;;0.03;82.27
84122;BME280;74217;51.106;17.084;2024-01-16T00:22:54;98643.81;;;0.13;82.21
84122;BME280;74217;51.106;17.084;2024-01-16T00:25:41;98649.31;;;0.32;81.64
84122;BME280;74217;51.106;17.084;2024-01-16T00:28:33;98657.63;;;0.12;81.98
84122;BME280;74217;51.106;17.084;2024-01-16T00:31:19;98666.88;;;-0.10;80.94
84122;BME280;74217;51.106;17.084;2024-01-16T00:34:08;98657.63;;;-0.18;79.17
84122;BME280;74217;51.106;17.084;2024-01-16T00:36:52;98683.47;;;-0.18;80.49
84122;BME280;74217;51.106;17.084;2024-01-16T00:39:42;98669.88;;;-0.26;80.44
84122;BME280;74217;51.106;17.084;2024-01-16T00:42:27;98683.38;;;-0.15;79.72
84122;BME280;74217;51.106;17.084;2024-01-16T00:45:17;98700.72;;;-0.20;80.26
84122;BME280;74217;51.106;17.084;2024-01-16T00:48:03;98709.75;;;-0.03;79.62
84122;BME280;74217;51.106;17.084;2024-01-16T00:50:54;98711.41;;;-0.00;79.18
84122;BME280;74217;51.106;17.084;2024-01-16T00:53:41;98720.94;;;-0.02;78.97
84122;BME280;74217;51.106;17.084;2024-01-16T00:56:31;98737.19;;;0.01;78.20
84122;BME280;74217;51.106;17.084;2024-01-16T00:59:18;98724.88;;;-0.21;78.82
84122;BME280;74217;51.106;17.084;2024-01-16T01:02:08;98749.81;;;-0.20;79.41
84122;BME280;74217;51.106;17.084;2024-01-16T01:04:56;98735.59;;;-0.36;79.53
84122;BME280;74217;51.106;17.084;2024-01-16T01:07:46;98751.09;;;-0.35;79.41
84122;BME280;74217;51.106;17.084;2024-01-16T01:10:30;98744.13;;;-0.33;79.81
84122;BME280;74217;51.106;17.084;2024-01-16T01:13:20;98736.25;;;-0.28;78.86
84122;BME280;74217;51.106;17.084;2024-01-16T01:16:04;98737.97;;;-0.29;79.51
84122;BME280;74217;51.106;17.084;2024-01-16T01:18:54;98753.41;;;-0.24;78.99
84122;BME280;74217;51.106;17.084;2024-01-16T01:21:40;98775.59;;;-0.17;78.20
84122;BME280;74217;51.106;17.084;2024-01-16T01:24:30;98766.31;;;-0.24;77.46
84122;BME280;74217;51.106;17.084;2024-01-16T01:27:14;98781.56;;;-0.15;78.11
84122;BME280;74217;51.106;17.084;2024-01-16T01:30:03;98775.09;;;-0.31;77.98
84122;BME280;74217;51.106;17.084;2024-01-16T01:32:50;98779.00;;;-0.15;78.09
84122;BME280;74217;51.106;17.084;2024-01-16T01:35:39;98769.06;;;-0.32;78.21
84122;BME280;74217;51.106;17.084;2024-01-16T01:38:26;98790.13;;;-0.13;77.64
84122;BME280;74217;51.106;17.084;2024-01-16T01:41:15;98794.47;;;-0.14;77.51
84122;BME280;74217;51.106;17.084;2024-01-16T01:44:03;98797.09;;;-0.15;77.85
84122;BME280;74217;51.106;17.084;2024-01-16T01:46:55;98809.97;;;-0.14;77.79
84122;BME280;74217;51.106;17.084;2024-01-16T01:49:40;98820.84;;;-0.01;77.71
84122;BME280;74217;51.106;17.084;2024-01-16T01:52:31;98816.56;;;-0.02;76.83
84122;BME280;74217;51.106;17.084;2024-01-16T01:55:16;98798.56;;;-0.05;76.71
84122;BME280;74217;51.106;17.084;2024-01-16T01:58:05;98818.84;;;0.10;76.99
84122;BME280;74217;51.106;17.084;2024-01-16T02:00:52;98828.50;;;0.03;76.99
84122;BME280;74217;51.106;17.084;2024-01-16T02:03:46;98819.31;;;-0.08;77.06
84122;BME280;74217;51.106;17.084;2024-01-16T02:06:30;98814.28;;;-0.14;77.55
84122;BME280;74217;51.106;17.084;2024-01-16T02:09:20;98830.25;;;0.01;76.65
84122;BME280;74217;51.106;17.084;2024-01-16T02:12:05;98820.16;;;-0.08;76.23
84122;BME280;74217;51.106;17.084;2024-01-16T02:14:56;98820.84;;;-0.01;75.29
84122;BME280;74217;51.106;17.084;2024-01-16T02:17:41;98836.34;;;-0.01;76.38
84122;BME280;74217;51.106;17.084;2024-01-16T02:20:31;98838.91;;;0.00;76.05
84122;BME280;74217;51.106;17.084;2024-01-16T02:23:24;98828.56;;;0.00;75.49
84122;BME280;74217;51.106;17.084;2024-01-16T02:26:17;98834.59;;;0.01;76.39
84122;BME280;74217;51.106;17.084;2024-01-16T02:29:03;98850.06;;;0.02;76.83
84122;BME280;74217;51.106;17.084;2024-01-16T02:31:55;98850.63;;;0.15;75.65
84122;BME280;74217;51.106;17.084;2024-01-16T02:34:40;98856.03;;;0.06;76.13
84122;BME280;74217;51.106;17.084;2024-01-16T02:37:30;98846.97;;;-0.12;75.02
84122;BME280;74217;51.106;17.084;2024-01-16T02:40:17;98861.19;;;0.06;75.01
84122;BME280;74217;51.106;17.084;2024-01-16T02:43:06;98859.81;;;-0.09;74.43
84122;BME280;74217;51.106;17.084;2024-01-16T02:45:51;98874.31;;;-0.03;75.06
84122;BME280;74217;51.106;17.084;2024-01-16T02:48:42;98880.34;;;-0.03;76.07
84122;BME280;74217;51.106;17.084;2024-01-16T02:51:26;98887.84;;;0.08;74.87
84122;BME280;74217;51.106;17.084;2024-01-16T02:54:16;98874.28;;;-0.00;74.66
84122;BME280;74217;51.106;17.084;2024-01-16T02:57:02;98894.94;;;-0.00;76.14
84122;BME280;74217;51.106;17.084;2024-01-16T03:00:03;98900.19;;;-0.03;75.39
84122;BME280;74217;51.106;17.084;2024-01-16T03:02:52;98900.06;;;-0.35;75.29
84122;BME280;74217;51.106;17.084;2024-01-16T03:05:41;98896.44;;;-0.28;75.60
84122;BME280;74217;51.106;17.084;2024-01-16T03:08:26;98899.16;;;-0.34;76.07
84122;BME280;74217;51.106;17.084;2024-01-16T03:11:15;98912.06;;;-0.33;76.36
84122;BME280;74217;51.106;17.084;2024-01-16T03:14:03;98905.34;;;-0.41;77.03
84122;BME280;74217;51.106;17.084;2024-01-16T03:16:54;98911.91;;;-0.25;76.75
84122;BME280;74217;51.106;17.084;2024-01-16T03:19:42;98909.84;;;-0.49;77.98
84122;BME280;74217;51.106;17.084;2024-01-16T03:22:32;98899.06;;;-0.69;78.76
84122;BME280;74217;51.106;17.084;2024-01-16T03:25:20;98916.63;;;-0.45;78.49
84122;BME280;74217;51.106;17.084;2024-01-16T03:28:09;98916.84;;;-0.54;79.04
84122;BME280;74217;51.106;17.084;2024-01-16T03:30:56;98924.56;;;-0.53;78.74
84122;BME280;74217;51.106;17.084;2024-01-16T03:33:46;98905.00;;;-0.64;78.51
84122;BME280;74217;51.106;17.084;2024-01-16T03:36:33;98909.13;;;-0.56;78.28
84122;BME280;74217;51.106;17.084;2024-01-16T03:39:22;98899.03;;;-0.68;78.90
84122;BME280;74217;51.106;17.084;2024-01-16T03:42:07;98910.16;;;-0.64;78.62
84122;BME280;74217;51.106;17.084;2024-01-16T03:44:57;98912.50;;;-0.54;78.69
84122;BME280;74217;51.106;17.084;2024-01-16T03:47:41;98916.09;;;-0.61;77.92
84122;BME280;74217;51.106;17.084;2024-01-16T03:50:31;98920.34;;;-0.58;78.63
84122;BME280;74217;51.106;17.084;2024-01-16T03:53:18;98903.28;;;-0.65;78.54
84122;BME280;74217;51.106;17.084;2024-01-16T03:56:08;98920.72;;;-0.76;77.95
84122;BME280;74217;51.106;17.084;2024-01-16T03:58:55;98925.66;;;-0.64;78.43
84122;BME280;74217;51.106;17.084;2024-01-16T04:01:43;98926.63;;;-0.70;78.01
84122;BME280;74217;51.106;17.084;2024-01-16T04:04:30;98925.78;;;-0.70;77.84
84122;BME280;74217;51.106;17.084;2024-01-16T04:07:22;98937.66;;;-0.62;76.86
84122;BME280;74217;51.106;17.084;2024-01-16T04:10:07;98947.16;;;-0.64;78.17
84122;BME280;74217;51.106;17.084;2024-01-16T04:12:54;98943.72;;;-0.64;78.02
84122;BME280;74217;51.106;17.084;2024-01-16T04:15:41;98936.88;;;-0.65;77.38
84122;BME280;74217;51.106;17.084;2024-01-16T04:18:35;98939.41;;;-0.62;78.10
84122;BME280;74217;51.106;17.084;2024-01-16T04:21:21;98927.63;;;-0.75;78.33
84122;BME280;74217;51.106;17.084;2024-01-16T04:24:10;98946.50;;;-0.73;78.24
84122;BME280;74217;51.106;17.084;2024-01-16T04:26:55;98939.44;;;-0.65;78.46
84122;BME280;74217;51.106;17.084;2024-01-16T04:29:44;98966.78;;;-0.55;78.09
84122;BME280;74217;51.106;17.084;2024-01-16T04:32:29;98971.97;;;-0.55;78.54
84122;BME280;74217;51.106;17.084;2024-01-16T04:35:18;98956.50;;;-0.58;78.22
84122;BME280;74217;51.106;17.084;2024-01-16T04:38:06;98951.31;;;-0.55;77.27
84122;BME280;74217;51.106;17.084;2024-01-16T04:40:56;98978.56;;;-0.42;76.80
84122;BME280;74217;51.106;17.084;2024-01-16T04:43:43;98977.13;;;-0.55;78.08
84122;BME280;74217;51.106;17.084;2024-01-16T04:46:32;98943.44;;;-0.51;77.72
84122;BME280;74217;51.106;17.084;2024-01-16T04:49:20;98957.50;;;-0.64;78.54
84122;BME280;74217;51.106;17.084;2024-01-16T04:52:08;98953.94;;;-0.58;77.63
84122;BME280;74217;51.106;17.084;2024-01-16T04:54:54;98973.22;;;-0.33;76.58
84122;BME280;74217;51.106;17.084;2024-01-16T04:57:43;98969.25;;;-0.49;77.17
84122;BME280;74217;51.106;17.084;2024-01-16T05:00:28;98967.47;;;-0.47;77.16
84122;BME280;74217;51.106;17.084;2024-01-16T05:03:17;98972.44;;;-0.38;77.55
84122;BME280;74217;51.106;17.084;2024-01-16T05:06:02;98976.94;;;-0.46;77.41
84122;BME280;74217;51.106;17.084;2024-01-16T05:08:51;98986.22;;;-0.38;77.80
84122;BME280;74217;51.106;17.084;2024-01-16T05:11:36;98981.56;;;-0.62;77.50
84122;BME280;74217;51.106;17.084;2024-01-16T05:14:23;98995.97;;;-0.50;77.28
84122;BME280;74217;51.106;17.084;2024-01-16T05:17:10;98971.88;;;-0.52;78.19
84122;BME280;74217;51.106;17.084;2024-01-16T05:20:01;98981.97;;;-0.40;77.35
84122;BME280;74217;51.106;17.084;2024-01-16T05:22:48;98971.50;;;-0.34;76.77
84122;BME280;74217;51.106;17.084;2024-01-16T05:25:37;98988.66;;;-0.30;76.13
84122;BME280;74217;51.106;17.084;2024-01-16T05:28:22;98992.66;;;-0.16;76.23
84122;BME280;74217;51.106;17.084;2024-01-16T05:31:11;98988.59;;;-0.27;76.31
84122;BME280;74217;51.106;17.084;2024-01-16T05:33:58;98981.59;;;-0.22;77.28
84122;BME280;74217;51.106;17.084;2024-01-16T05:36:47;98993.59;;;-0.20;77.71
84122;BME280;74217;51.106;17.084;2024-01-16T05:39:32;98992.56;;;-0.11;76.76
84122;BME280;74217;51.106;17.084;2024-01-16T05:42:21;98996.84;;;-0.10;77.36
84122;BME280;74217;51.106;17.084;2024-01-16T05:45:06;99000.03;;;0.01;76.82
84122;BME280;74217;51.106;17.084;2024-01-16T05:47:56;98977.94;;;-0.12;76.99
84122;BME280;74217;51.106;17.084;2024-01-16T05:50:41;99007.88;;;-0.04;77.40
84122;BME280;74217;51.106;17.084;2024-01-16T05:53:31;98977.06;;;-0.13;77.08
84122;BME280;74217;51.106;17.084;2024-01-16T05:56:16;99009.81;;;-0.13;77.37
84122;BME280;74217;51.106;17.084;2024-01-16T05:59:03;99014.69;;;0.00;77.76
84122;BME280;74217;51.106;17.084;2024-01-16T06:01:51;99011.97;;;0.06;76.69
84122;BME280;74217;51.106;17.084;2024-01-16T06:04:40;99001.78;;;-0.01;76.71
84122;BME280;74217;51.106;17.084;2024-01-16T06:07:25;99010.38;;;0.01;77.15
84122;BME280;74217;51.106;17.084;2024-01-16T06:10:12;99032.66;;;0.06;76.71
84122;BME280;74217;51.106;17.084;2024-01-16T06:12:59;99038.59;;;0.11;76.01
84122;BME280;74217;51.106;17.084;2024-01-16T06:15:49;99043.72;;;-0.27;77.53
84122;BME280;74217;51.106;17.084;2024-01-16T06:18:34;99072.50;;;-0.46;76.67
84122;BME280;74217;51.106;17.084;2024-01-16T06:21:24;99068.53;;;-0.62;76.81
84122;BME280;74217;51.106;17.084;2024-01-16T06:24:09;99058.25;;;-0.67;76.86
84122;BME280;74217;51.106;17.084;2024-01-16T06:27:00;99061.63;;;-0.63;76.59
84122;BME280;74217;51.106;17.084;2024-01-16T06:29:45;99077.91;;;-0.58;77.31
84122;BME280;74217;51.106;17.084;2024-01-16T06:32:35;99078.84;;;-0.62;77.50
84122;BME280;74217;51.106;17.084;2024-01-16T06:35:22;99071.81;;;-0.54;76.44
84122;BME280;74217;51.106;17.084;2024-01-16T06:38:12;99071.06;;;-0.61;76.50
84122;BME280;74217;51.106;17.084;2024-01-16T06:40:58;99060.78;;;-0.62;76.34
84122;BME280;74217;51.106;17.084;2024-01-16T06:43:47;99075.31;;;-0.58;76.52
84122;BME280;74217;51.106;17.084;2024-01-16T06:46:32;99085.50;;;-0.49;76.55
84122;BME280;74217;51.106;17.084;2024-01-16T06:49:21;99089.88;;;-0.53;77.46
84122;BME280;74217;51.106;17.084;2024-01-16T06:52:08;99099.91;;;-0.39;76.82
84122;BME280;74217;51.106;17.084;2024-01-16T06:54:58;99092.28;;;-0.45;76.05
84122;BME280;74217;51.106;17.084;2024-01-16T06:57:43;99114.59;;;-0.41;76.46
84122;BME280;74217;51.106;17.084;2024-01-16T07:00:32;99112.13;;;-0.46;76.36
84122;BME280;74217;51.106;17.084;2024-01-16T07:03:17;99111.25;;;-0.46;75.42
84122;BME280;74217;51.106;17.084;2024-01-16T07:06:06;99118.06;;;-0.42;76.07
84122;BME280;74217;51.106;17.084;2024-01-16T07:08:53;99139.47;;;-0.36;74.49
84122;BME280;74217;51.106;17.084;2024-01-16T07:11:43;99147.19;;;-0.33;75.33
84122;BME280;74217;51.106;17.084;2024-01-16T07:14:28;99158.34;;;-0.32;74.85
84122;BME280;74217;51.106;17.084;2024-01-16T07:17:17;99165.13;;;-0.25;74.94
84122;BME280;74217;51.106;17.084;2024-01-16T07:20:04;99173.63;;;-0.19;74.85
84122;BME280;74217;51.106;17.084;2024-01-16T07:22:54;99165.16;;;-0.27;74.21
84122;BME280;74217;51.106;17.084;2024-01-16T07:25:39;99185.59;;;-0.15;74.29
84122;BME280;74217;51.106;17.084;2024-01-16T07:28:28;99187.47;;;-0.23;73.83
84122;BME280;74217;51.106;17.084;2024-01-16T07:31:13;99191.69;;;-0.17;74.55
84122;BME280;74217;51.106;17.084;2024-01-16T07:34:00;99183.34;;;-0.33;75.32
84122;BME280;74217;51.106;17.084;2024-01-16T07:36:47;99195.41;;;-0.33;74.60
84122;BME280;74217;51.106;17.084;2024-01-16T07:39:34;99204.69;;;-0.22;74.99
84122;BME280;74217;51.106;17.084;2024-01-16T07:42:22;99193.56;;;-0.25;74.26
84122;BME280;74217;51.106;17.084;2024-01-16T07:45:08;99214.25;;;-0.25;75.05
84122;BME280;74217;51.106;17.084;2024-01-16T07:47:55;99210.00;;;-0.29;74.91
84122;BME280;74217;51.106;17.084;2024-01-16T07:50:44;99229.56;;;-0.16;74.94
84122;BME280;74217;51.106;17.084;2024-01-16T07:53:32;99223.63;;;-0.21;74.88
84122;BME280;74217;51.106;17.084;2024-01-16T07:56:19;99226.09;;;-0.15;74.26
84122;BME280;74217;51.106;17.084;2024-01-16T07:59:06;99226.06;;;-0.12;73.44
84122;BME280;74217;51.106;17.084;2024-01-16T08:01:54;99231.22;;;-0.12;74.85
84122;BME280;74217;51.106;17.084;2024-01-16T08:04:41;99237.03;;;0.00;74.67
84122;BME280;74217;51.106;17.084;2024-01-16T08:07:30;99232.25;;;-0.22;75.32
84122;BME280;74217;51.106;17.084;2024-01-16T08:10:17;99238.34;;;-0.26;74.94
84122;BME280;74217;51.106;17.084;2024-01-16T08:13:02;99265.69;;;-0.13;74.04
84122;BME280;74217;51.106;17.084;2024-01-16T08:15:50;99271.44;;;0.02;73.42
84122;BME280;74217;51.106;17.084;2024-01-16T08:18:37;99257.78;;;-0.04;73.31
84122;BME280;74217;51.106;17.084;2024-01-16T08:21:22;99266.38;;;-0.04;73.26
84122;BME280;74217;51.106;17.084;2024-01-16T08:24:06;99284.34;;;0.04;71.99
84122;BME280;74217;51.106;17.084;2024-01-16T08:26:53;99283.75;;;-0.10;72.79
84122;BME280;74217;51.106;17.084;2024-01-16T08:29:46;99295.84;;;-0.12;73.93
84122;BME280;74217;51.106;17.084;2024-01-16T08:32:34;99282.97;;;-0.15;74.16
84122;BME280;74217;51.106;17.084;2024-01-16T08:35:21;99287.28;;;-0.16;73.93
84122;BME280;74217;51.106;17.084;2024-01-16T08:38:06;99287.44;;;-0.25;74.26
84122;BME280;74217;51.106;17.084;2024-01-16T08:40:53;99305.81;;;0.09;73.70
84122;BME280;74217;51.106;17.084;2024-01-16T08:43:39;99301.63;;;0.02;72.93
84122;BME280;74217;51.106;17.084;2024-01-16T08:46:28;99303.28;;;0.06;72.85
84122;BME280;74217;51.106;17.084;2024-01-16T08:49:16;99311.91;;;0.05;72.90
84122;BME280;74217;51.106;17.084;2024-01-16T08:52:05;99310.09;;;0.11;72.44
84122;BME280;74217;51.106;17.084;2024-01-16T08:54:51;99309.41;;;0.00;72.78
84122;BME280;74217;51.106;17.084;2024-01-16T08:57:40;99306.63;;;0.11;72.19
84122;BME280;74217;51.106;17.084;2024-01-16T09:00:26;99318.56;;;0.18;72.22
84122;BME280;74217;51.106;17.084;2024-01-16T09:03:15;99316.84;;;0.20;72.24
84122;BME280;74217;51.106;17.084;2024-01-16T09:06:03;99332.28;;;0.23;73.01
84122;BME280;74217;51.106;17.084;2024-01-16T09:08:52;99335.06;;;0.12;73.10
84122;BME280;74217;51.106;17.084;2024-01-16T09:11:39;99346.91;;;0.24;72.72
84122;BME280;74217;51.106;17.084;2024-01-16T09:14:27;99305.59;;;0.22;73.11
84122;BME280;74217;51.106;17.084;2024-01-16T09:17:13;99317.63;;;0.23;71.81
84122;BME280;74217;51.106;17.084;2024-01-16T09:20:00;99333.03;;;0.31;72.31
84122;BME280;74217;51.106;17.084;2024-01-16T09:22:47;99321.81;;;0.29;71.61
84122;BME280;74217;51.106;17.084;2024-01-16T09:25:36;99320.13;;;0.28;71.10
84122;BME280;74217;51.106;17.084;2024-01-16T09:28:21;99323.81;;;0.13;71.48
84122;BME280;74217;51.106;17.084;2024-01-16T09:31:08;99333.97;;;0.24;70.50
84122;BME280;74217;51.106;17.084;2024-01-16T10:03:44;99351.72;;;0.45;67.91
84122;BME280;74217;51.106;17.084;2024-01-16T10:06:31;99359.50;;;0.45;69.00
84122;BME280;74217;51.106;17.084;2024-01-16T10:09:20;99374.13;;;0.47;68.93
84122;BME280;74217;51.106;17.084;2024-01-16T10:12:08;99385.38;;;0.45;69.92
84122;BME280;74217;51.106;17.084;2024-01-16T10:14:56;99378.53;;;0.41;70.86
84122;BME280;74217;51.106;17.084;2024-01-16T10:17:43;99383.66;;;0.44;69.72
84122;BME280;74217;51.106;17.084;2024-01-16T10:20:34;99389.63;;;0.47;69.90
84122;BME280;74217;51.106;17.084;2024-01-16T10:23:31;99386.19;;;0.45;71.21
84122;BME280;74217;51.106;17.084;2024-01-16T10:26:17;99361.13;;;0.49;69.83
84122;BME280;74217;51.106;17.084;2024-01-16T10:29:05;99380.97;;;0.50;69.74
84122;BME280;74217;51.106;17.084;2024-01-16T10:31:52;99395.66;;;0.48;67.50
84122;BME280;74217;51.106;17.084;2024-01-16T10:34:41;99390.31;;;0.57;68.45
84122;BME280;74217;51.106;17.084;2024-01-16T10:37:28;99397.19;;;0.58;67.59
84122;BME280;74217;51.106;17.084;2024-01-16T10:40:20;99394.81;;;0.47;68.71
84122;BME280;74217;51.106;17.084;2024-01-16T10:43:05;99409.47;;;0.47;68.90
84122;BME280;74217;51.106;17.084;2024-01-16T10:46:13;99390.69;;;0.36;68.88
84122;BME280;74217;51.106;17.084;2024-01-16T10:49:02;99405.28;;;0.40;69.30
84122;BME280;74217;51.106;17.084;2024-01-16T10:51:51;99401.00;;;0.39;70.50
84122;BME280;74217;51.106;17.084;2024-01-16T10:54:41;99421.41;;;0.54;68.74
84122;BME280;74217;51.106;17.084;2024-01-16T10:57:34;99416.09;;;0.63;69.61
84122;BME280;74217;51.106;17.084;2024-01-16T11:00:22;99406.66;;;0.59;70.47
84122;BME280;74217;51.106;17.084;2024-01-16T11:03:18;99420.53;;;0.55;72.18
84122;BME280;74217;51.106;17.084;2024-01-16T11:06:04;99418.72;;;0.60;70.90
84122;BME280;74217;51.106;17.084;2024-01-16T11:08:54;99402.41;;;0.55;69.59
84122;BME280;74217;51.106;17.084;2024-01-16T11:11:39;99400.00;;;0.46;70.11
84122;BME280;74217;51.106;17.084;2024-01-16T11:14:28;99397.34;;;0.49;69.77
84122;BME280;74217;51.106;17.084;2024-01-16T11:17:14;99410.19;;;0.55;70.00
84122;BME280;74217;51.106;17.084;2024-01-16T11:20:06;99395.59;;;0.51;70.14
84122;BME280;74217;51.106;17.084;2024-01-16T11:22:55;99403.09;;;0.64;68.83
84122;BME280;74217;51.106;17.084;2024-01-16T11:25:46;99402.09;;;0.73;69.29
84122;BME280;74217;51.106;17.084;2024-01-16T11:28:33;99412.19;;;0.88;69.15
84122;BME280;74217;51.106;17.084;2024-01-16T11:31:35;99420.47;;;1.05;68.21
84122;BME280;74217;51.106;17.084;2024-01-16T11:37:31;99416.34;;;1.39;68.30
84122;BME280;74217;51.106;17.084;2024-01-16T11:46:19;99430.63;;;1.56;67.56
84122;BME280;74217;51.106;17.084;2024-01-16T11:49:07;99421.66;;;1.33;68.35
84122;BME280;74217;51.106;17.084;2024-01-16T11:51:54;99430.34;;;1.29;67.31
84122;BME280;74217;51.106;17.084;2024-01-16T11:54:43;99434.03;;;1.19;67.29
84122;BME280;74217;51.106;17.084;2024-01-16T11:57:53;99430.22;;;0.92;66.94
84122;BME280;74217;51.106;17.084;2024-01-16T12:00:51;99431.22;;;0.84;68.68
84122;BME280;74217;51.106;17.084;2024-01-16T12:03:36;99437.50;;;0.72;69.25
84122;BME280;74217;51.106;17.084;2024-01-16T12:06:25;99425.41;;;0.71;68.88
84122;BME280;74217;51.106;17.084;2024-01-16T12:09:16;99439.81;;;0.86;69.70
84122;BME280;74217;51.106;17.084;2024-01-16T12:12:09;99438.94;;;0.87;69.23
84122;BME280;74217;51.106;17.084;2024-01-16T12:14:53;99448.34;;;0.91;69.11
84122;BME280;74217;51.106;17.084;2024-01-16T12:17:52;99424.78;;;0.59;69.43
84122;BME280;74217;51.106;17.084;2024-01-16T12:20:37;99435.22;;;0.54;70.38
84122;BME280;74217;51.106;17.084;2024-01-16T12:23:26;99454.22;;;0.52;70.87
84122;BME280;74217;51.106;17.084;2024-01-16T12:26:19;99458.53;;;0.53;71.12
84122;BME280;74217;51.106;17.084;2024-01-16T12:29:08;99461.47;;;0.32;70.85
84122;BME280;74217;51.106;17.084;2024-01-16T12:34:56;99452.63;;;0.45;71.53
84122;BME280;74217;51.106;17.084;2024-01-16T12:37:41;99455.34;;;0.36;72.65
84122;BME280;74217;51.106;17.084;2024-01-16T12:40:31;99457.28;;;0.25;71.99
84122;BME280;74217;51.106;17.084;2024-01-16T12:43:17;99460.50;;;0.37;71.80
84122;BME280;74217;51.106;17.084;2024-01-16T12:46:07;99471.66;;;0.41;71.84
84122;BME280;74217;51.106;17.084;2024-01-16T12:49:05;99475.72;;;0.57;72.03
84122;BME280;74217;51.106;17.084;2024-01-16T12:52:16;99472.94;;;0.69;71.77
84122;BME280;74217;51.106;17.084;2024-01-16T12:55:04;99483.97;;;0.78;72.20
84122;BME280;74217;51.106;17.084;2024-01-16T12:58:16;99490.25;;;0.64;71.21
84122;BME280;74217;51.106;17.084;2024-01-16T13:01:27;99510.91;;;0.67;71.70
84122;BME280;74217;51.106;17.084;2024-01-16T13:04:20;99504.38;;;0.45;72.42
84122;BME280;74217;51.106;17.084;2024-01-16T13:07:05;99482.16;;;0.32;72.96
84122;BME280;74217;51.106;17.084;2024-01-16T13:10:11;99483.75;;;0.40;74.09
84122;BME280;74217;51.106;17.084;2024-01-16T13:13:20;99487.25;;;0.36;73.34
84122;BME280;74217;51.106;17.084;2024-01-16T13:16:10;99476.94;;;0.35;72.55
84122;BME280;74217;51.106;17.084;2024-01-16T13:19:01;99488.25;;;0.29;72.89
84122;BME280;74217;51.106;17.084;2024-01-16T13:21:52;99498.66;;;0.25;72.46
84122;BME280;74217;51.106;17.084;2024-01-16T13:24:41;99488.97;;;0.37;72.53
84122;BME280;74217;51.106;17.084;2024-01-16T13:27:29;99493.53;;;0.20;72.61
84122;BME280;74217;51.106;17.084;2024-01-16T13:30:16;99496.00;;;0.28;71.35
84122;BME280;74217;51.106;17.084;2024-01-16T13:33:05;99491.53;;;0.39;72.15
84122;BME280;74217;51.106;17.084;2024-01-16T13:35:52;99476.31;;;0.19;72.65
84122;BME280;74217;51.106;17.084;2024-01-16T13:38:41;99500.28;;;0.30;71.98
84122;BME280;74217;51.106;17.084;2024-01-16T13:41:28;99432.16;;;-0.25;71.34
84122;BME280;74217;51.106;17.084;2024-01-16T13:44:16;99433.97;;;-0.31;71.44
84122;BME280;74217;51.106;17.084;2024-01-16T13:47:05;99473.19;;;-0.02;71.43
84122;BME280;74217;51.106;17.084;2024-01-16T13:55:58;99504.56;;;0.31;72.23
84122;BME280;74217;51.106;17.084;2024-01-16T13:58:42;99500.44;;;0.20;71.68
84122;BME280;74217;51.106;17.084;2024-01-16T14:01:29;99497.69;;;0.32;71.64
84122;BME280;74217;51.106;17.084;2024-01-16T14:04:17;99494.94;;;0.41;71.28
84122;BME280;74217;51.106;17.084;2024-01-16T14:07:02;99499.50;;;0.25;71.85
84122;BME280;74217;51.106;17.084;2024-01-16T14:09:47;99504.78;;;0.18;71.76
84122;BME280;74217;51.106;17.084;2024-01-16T14:12:34;99506.44;;;0.22;72.67
84122;BME280;74217;51.106;17.084;2024-01-16T14:15:20;99510.75;;;0.21;72.24
84122;BME280;74217;51.106;17.084;2024-01-16T14:18:09;99520.25;;;0.21;71.69
84122;BME280;74217;51.106;17.084;2024-01-16T14:20:53;99518.50;;;0.21;73.48
84122;BME280;74217;51.106;17.084;2024-01-16T14:23:41;99520.97;;;0.32;73.04
84122;BME280;74217;51.106;17.084;2024-01-16T14:26:30;99509.81;;;0.27;74.12
84122;BME280;74217;51.106;17.084;2024-01-16T14:29:15;99514.84;;;0.36;73.18
84122;BME280;74217;51.106;17.084;2024-01-16T14:32:02;99513.97;;;0.37;73.68
84122;BME280;74217;51.106;17.084;2024-01-16T14:34:47;99518.31;;;0.35;73.05
84122;BME280;74217;51.106;17.084;2024-01-16T14:37:34;99512.22;;;0.40;72.67
84122;BME280;74217;51.106;17.084;2024-01-16T14:40:21;99520.81;;;0.42;72.94
84122;BME280;74217;51.106;17.084;2024-01-16T14:43:13;99520.81;;;0.41;72.77
84122;BME280;74217;51.106;17.084;2024-01-16T14:45:59;99528.47;;;0.47;73.89
84122;BME280;74217;51.106;17.084;2024-01-16T14:48:46;99519.03;;;0.46;73.26
84122;BME280;74217;51.106;17.084;2024-01-16T14:51:33;99524.88;;;0.57;72.82
84122;BME280;74217;51.106;17.084;2024-01-16T14:54:22;99516.53;;;0.40;74.48
84122;BME280;74217;51.106;17.084;2024-01-16T14:57:09;99520.00;;;0.39;74.42
84122;BME280;74217;51.106;17.084;2024-01-16T14:59:59;99525.19;;;0.36;72.98
84122;BME280;74217;51.106;17.084;2024-01-16T15:02:47;99526.22;;;0.26;73.07
84122;BME280;74217;51.106;17.084;2024-01-16T15:05:39;99503.22;;;0.08;74.25
84122;BME280;74217;51.106;17.084;2024-01-16T15:08:24;99527.19;;;0.19;72.61
84122;BME280;74217;51.106;17.084;2024-01-16T15:11:14;99526.66;;;-0.06;73.70
84122;BME280;74217;51.106;17.084;2024-01-16T15:13:59;99532.63;;;0.01;72.38
84122;BME280;74217;51.106;17.084;2024-01-16T15:16:48;99545.69;;;-0.11;73.93
84122;BME280;74217;51.106;17.084;2024-01-16T15:19:36;99541.41;;;-0.12;73.41
84122;BME280;74217;51.106;17.084;2024-01-16T15:22:25;99551.81;;;-0.18;73.30
84122;BME280;74217;51.106;17.084;2024-01-16T15:25:12;99551.97;;;-0.32;73.66
84122;BME280;74217;51.106;17.084;2024-01-16T15:28:00;99549.50;;;-0.41;74.66
84122;BME280;74217;51.106;17.084;2024-01-16T15:30:45;99553.75;;;-0.38;73.86
84122;BME280;74217;51.106;17.084;2024-01-16T15:33:37;99561.63;;;-0.44;74.44